Time;durP1;ratioP1;P1;durP2;ratioP2;P2;SDS_P1;SDS_P2;PMS_P1;PMS_P2;Temp;Humidity;BMP_temperature;BMP_pressure;BME280_temperature;BME280_humidity;BME280_pressure;Samples;Min_cycle;Max_cycle;Signal;HPM_P1;HPM_P2
2024/02/03 00:01:28;;;;;;;7.90;4.40;;;;;;;15.76;53.13;102541.44;4971917;28;20435;-61
2024/02/03 00:03:54;;;;;;;8.25;4.90;;;;;;;15.78;53.58;102530.50;4973543;28;20047;-61
2024/02/03 00:06:19;;;;;;;10.88;5.30;;;;;;;15.79;53.54;102529.53;4972249;28;20043;-61
2024/02/03 00:08:45;;;;;;;7.05;4.82;;;;;;;15.79;53.02;102521.41;4972628;28;20033;-62
2024/02/03 00:11:10;;;;;;;7.22;4.43;;;;;;;15.82;52.66;102531.97;4973707;28;20509;-62
2024/02/03 00:13:36;;;;;;;6.05;4.35;;;;;;;15.82;53.06;102526.56;4972378;28;20043;-61
2024/02/03 00:16:02;;;;;;;9.85;5.57;;;;;;;15.82;53.48;102529.28;4980414;28;20035;-61
2024/02/03 00:18:27;;;;;;;8.15;5.38;;;;;;;15.83;52.61;102528.31;4973726;28;20069;-61
2024/02/03 00:20:53;;;;;;;7.40;4.35;;;;;;;15.86;53.26;102538.84;4972523;28;20090;-62
2024/02/03 00:23:18;;;;;;;6.15;4.68;;;;;;;15.90;52.74;102537.63;4972830;28;20027;-61
2024/02/03 00:25:44;;;;;;;10.73;5.03;;;;;;;15.87;53.91;102535.16;4972944;28;20035;-61
2024/02/03 00:28:09;;;;;;;9.30;4.88;;;;;;;15.85;53.34;102527.19;4973287;28;20030;-61
2024/02/03 00:30:35;;;;;;;8.13;4.35;;;;;;;15.85;52.63;102531.75;4972613;28;20081;-61
2024/02/03 00:33:00;;;;;;;7.60;3.85;;;;;;;15.87;52.88;102536.03;4972632;28;20041;-62
2024/02/03 00:35:26;;;;;;;6.55;4.45;;;;;;;15.89;52.97;102525.09;4972635;28;20090;-61
2024/02/03 00:37:51;;;;;;;4.63;3.63;;;;;;;15.89;53.55;102527.78;4973860;28;20110;-62
2024/02/03 00:40:17;;;;;;;5.53;3.50;;;;;;;15.90;53.40;102524.13;4972456;28;20034;-61
2024/02/03 00:42:43;;;;;;;5.63;4.05;;;;;;;15.92;53.42;102527.56;4973902;28;20073;-62
2024/02/03 00:45:08;;;;;;;7.93;3.55;;;;;;;15.90;52.91;102518.72;4972560;28;20035;-60
2024/02/03 00:47:34;;;;;;;6.72;4.00;;;;;;;15.92;52.93;102528.41;4972726;28;20035;-61
2024/02/03 00:49:59;;;;;;;7.15;4.22;;;;;;;15.89;54.16;102527.78;4975612;28;20398;-60
2024/02/03 00:52:26;;;;;;;4.82;3.47;;;;;;;15.89;53.18;102530.50;4976099;28;20042;-60
2024/02/03 00:54:51;;;;;;;7.88;3.50;;;;;;;15.92;52.93;102528.41;4977289;28;20502;-60
2024/02/03 00:57:17;;;;;;;5.25;3.13;;;;;;;15.94;53.68;102531.03;4976217;28;20042;-60
2024/02/03 00:59:43;;;;;;;4.88;3.45;;;;;;;15.96;53.47;102529.91;4977290;28;20121;-61
2024/02/03 01:02:09;;;;;;;4.88;3.55;;;;;;;15.96;53.24;102531.75;4977318;28;20451;-60
2024/02/03 01:04:34;;;;;;;4.57;2.90;;;;;;;15.93;52.53;102523.88;4992138;28;20043;-60
2024/02/03 01:07:01;;;;;;;4.05;2.88;;;;;;;15.89;52.92;102525.09;4975830;28;20061;-61
2024/02/03 01:09:26;;;;;;;4.38;3.00;;;;;;;15.90;53.41;102534.94;4975791;28;20035;-61
2024/02/03 01:11:52;;;;;;;6.50;3.10;;;;;;;15.90;54.04;102537.63;4991868;28;20034;-61
2024/02/03 01:14:17;;;;;;;4.07;2.92;;;;;;;15.91;53.73;102528.56;4992278;28;20034;-61
2024/02/03 01:16:44;;;;;;;4.53;3.42;;;;;;;15.90;52.66;102524.13;4975724;28;20037;-61
2024/02/03 01:19:11;;;;;;;4.45;2.65;;;;;;;15.90;53.26;102527.69;4976964;28;20059;-61
2024/02/03 01:21:37;;;;;;;3.60;2.83;;;;;;;15.87;53.66;102524.38;4976957;28;20031;-61
2024/02/03 01:24:02;;;;;;;4.00;2.92;;;;;;;15.88;53.32;102526.09;4975460;28;20029;-61
2024/02/03 01:26:28;;;;;;;4.00;2.63;;;;;;;15.86;52.83;102523.50;4991901;28;20043;-62
2024/02/03 01:28:53;;;;;;;3.67;2.78;;;;;;;15.79;53.89;102519.56;4976797;28;20066;-61
2024/02/03 01:31:18;;;;;;;3.80;2.53;;;;;;;15.78;54.48;102528.66;4975269;28;20038;-61
2024/02/03 01:33:44;;;;;;;4.32;2.50;;;;;;;15.80;53.11;102540.19;4975394;28;20043;-61
2024/02/03 01:36:09;;;;;;;4.70;2.50;;;;;;;15.82;53.81;102531.97;4976515;28;20046;-61
2024/02/03 01:38:35;;;;;;;3.05;2.50;;;;;;;15.81;53.64;102531.13;4975372;28;20504;-62
2024/02/03 01:41:02;;;;;;;2.55;2.30;;;;;;;15.80;54.10;102525.84;4976835;28;20102;-61
2024/02/03 01:43:27;;;;;;;3.30;2.65;;;;;;;15.78;54.12;102525.09;4975601;28;20074;-61
2024/02/03 01:45:52;;;;;;;3.60;2.63;;;;;;;15.79;53.61;102524.97;4975409;28;20046;-61
2024/02/03 01:48:19;;;;;;;3.42;2.85;;;;;;;15.83;53.84;102529.13;4976466;28;20082;-61
2024/02/03 01:50:49;;;;;;;4.10;2.25;;;;;;;15.82;53.94;102529.28;4975095;28;20062;-61
2024/02/03 01:53:16;;;;;;;2.83;2.47;;;;;;;15.84;54.46;102524.59;4991341;28;20138;-61
2024/02/03 01:55:42;;;;;;;3.65;2.50;;;;;;;15.86;53.23;102517.22;4976118;28;20042;-60
2024/02/03 01:58:07;;;;;;;2.90;2.17;;;;;;;15.86;53.70;102512.69;4974761;28;20045;-61
2024/02/03 02:00:33;;;;;;;2.75;2.28;;;;;;;15.86;52.93;102504.56;4974697;28;20109;-61
2024/02/03 02:02:58;;;;;;;3.40;2.13;;;;;;;15.86;54.29;102512.69;4976154;28;20057;-61
2024/02/03 02:05:24;;;;;;;3.28;2.47;;;;;;;15.89;54.38;102522.38;4991136;28;20074;-61
2024/02/03 02:07:50;;;;;;;3.15;2.35;;;;;;;15.89;54.19;102523.25;4974675;28;20030;-61
2024/02/03 02:10:16;;;;;;;3.63;2.28;;;;;;;15.91;54.48;102523.16;4974731;28;20569;-61
2024/02/03 02:12:41;;;;;;;2.83;2.10;;;;;;;15.93;54.32;102510.38;4976026;28;20037;-61
2024/02/03 02:15:08;;;;;;;3.38;2.60;;;;;;;15.90;53.90;102507.91;4975883;28;20034;-61
2024/02/03 02:17:36;;;;;;;3.75;2.33;;;;;;;15.89;53.49;102501.63;4975800;28;20387;-61
2024/02/03 02:20:11;;;;;;;2.95;2.15;;;;;;;15.86;53.66;102490.19;4990759;28;20106;-61
2024/02/03 02:22:36;;;;;;;3.58;1.73;;;;;;;15.92;53.31;102504.09;4990523;28;20038;-61
2024/02/03 02:25:03;;;;;;;2.30;1.60;;;;;;;15.94;54.22;102509.41;4974416;28;20031;-62
2024/02/03 02:27:29;;;;;;;2.15;1.58;;;;;;;15.95;53.46;102505.69;4975692;28;20031;-61
2024/02/03 02:29:54;;;;;;;2.40;1.95;;;;;;;15.94;53.30;102507.53;4974800;28;20038;-61
2024/02/03 02:32:19;;;;;;;2.53;1.90;;;;;;;15.97;53.84;102506.44;4976408;28;20498;-61
2024/02/03 02:34:45;;;;;;;2.92;1.90;;;;;;;15.99;52.98;102496.38;4974125;28;20027;-61
2024/02/03 02:37:10;;;;;;;2.55;1.90;;;;;;;16.01;54.22;102502.50;4975471;28;20035;-61
2024/02/03 02:39:36;;;;;;;3.67;1.75;;;;;;;16.01;53.69;102503.38;4975309;28;20142;-61
2024/02/03 02:42:01;;;;;;;3.28;1.90;;;;;;;15.99;53.56;102496.38;4974091;28;20043;-62
2024/02/03 02:44:27;;;;;;;2.47;2.00;;;;;;;15.97;53.10;102491.06;4990319;28;20038;-61
2024/02/03 02:46:52;;;;;;;3.33;2.15;;;;;;;15.97;53.56;102487.53;4974107;28;20035;-62
2024/02/03 02:49:17;;;;;;;3.70;2.40;;;;;;;15.97;54.55;102477.56;4974038;28;20501;-61
2024/02/03 02:51:43;;;;;;;1.70;1.42;;;;;;;16.01;53.96;102480.88;4957685;28;20550;-61
2024/02/03 02:54:08;;;;;;;2.88;1.80;;;;;;;16.03;53.85;102481.59;4974038;28;20043;-61
2024/02/03 02:56:35;;;;;;;4.68;1.63;;;;;;;16.05;53.86;102479.66;4990150;28;20058;-61
2024/02/03 02:59:02;;;;;;;3.22;1.98;;;;;;;16.08;53.21;102474.00;4973683;28;20090;-62
2024/02/03 03:01:27;;;;;;;3.13;2.00;;;;;;;16.07;53.80;102469.56;4973882;28;20094;-61
2024/02/03 03:03:53;;;;;;;3.33;2.17;;;;;;;16.08;53.35;102468.59;4974616;28;20511;-61
2024/02/03 03:06:19;;;;;;;2.25;1.77;;;;;;;16.12;53.03;102470.06;4975783;28;20517;-61
2024/02/03 03:08:44;;;;;;;1.95;1.42;;;;;;;16.13;53.58;102463.66;4974750;28;20035;-61
2024/02/03 03:11:12;;;;;;;2.30;2.08;;;;;;;16.17;54.12;102473.22;4975132;28;20034;-61
2024/02/03 03:13:38;;;;;;;3.03;1.95;;;;;;;16.18;52.96;102465.00;4958147;28;20031;-61
2024/02/03 03:16:05;;;;;;;4.40;2.78;;;;;;;16.18;53.10;102458.75;4989706;28;20406;-62
2024/02/03 03:18:30;;;;;;;4.28;3.03;;;;;;;16.18;52.86;102442.53;4973423;28;20039;-61
2024/02/03 03:20:58;;;;;;;3.78;2.25;;;;;;;16.16;52.97;102431.81;4974551;28;20045;-61
2024/02/03 03:23:23;;;;;;;3.13;2.45;;;;;;;16.20;53.11;102440.53;4973589;28;20517;-61
2024/02/03 03:25:49;;;;;;;3.22;2.20;;;;;;;16.20;53.58;102418.91;4989838;28;20035;-61
2024/02/03 03:28:14;;;;;;;3.70;2.70;;;;;;;16.19;52.86;102430.72;4973321;28;20482;-61
2024/02/03 03:30:41;;;;;;;5.05;2.47;;;;;;;16.21;53.48;102426.03;4973307;28;20039;-61
2024/02/03 03:33:07;;;;;;;3.47;2.28;;;;;;;16.20;53.21;102425.19;4973356;28;20031;-61
2024/02/03 03:35:33;;;;;;;2.80;2.28;;;;;;;16.22;52.74;102425.03;4973339;28;20041;-61
2024/02/03 03:37:58;;;;;;;8.50;3.10;;;;;;;16.23;52.62;102418.66;4989549;28;20035;-61
2024/02/03 03:40:23;;;;;;;3.72;2.83;;;;;;;16.20;52.84;102422.47;4973213;28;20125;-61
2024/02/03 03:42:49;;;;;;;3.28;2.75;;;;;;;16.17;53.07;102413.75;4973117;28;20035;-61
2024/02/03 03:45:16;;;;;;;4.18;3.03;;;;;;;16.19;53.99;102409.09;4973233;28;20042;-61
2024/02/03 03:47:42;;;;;;;3.90;3.17;;;;;;;16.23;53.14;102418.66;4974329;28;20042;-61
2024/02/03 03:50:07;;;;;;;5.05;2.90;;;;;;;16.22;53.09;102422.34;4972845;28;20111;-62
2024/02/03 03:52:33;;;;;;;3.80;2.53;;;;;;;16.23;53.16;102424.06;4973237;28;20027;-61
2024/02/03 03:55:00;;;;;;;6.28;2.67;;;;;;;16.25;53.63;102432.91;4989301;28;20118;-61
2024/02/03 03:57:25;;;;;;;3.47;2.35;;;;;;;16.26;53.70;102429.22;4974243;28;20109;-62
2024/02/03 03:59:51;;;;;;;2.83;2.45;;;;;;;16.28;52.94;102430.81;4988965;28;20502;-62
2024/02/03 04:02:16;;;;;;;5.28;2.97;;;;;;;16.28;53.50;102433.50;4989313;28;20052;-62
2024/02/03 04:04:41;;;;;;;4.07;3.08;;;;;;;16.30;53.60;102428.00;4974043;28;20414;-61
2024/02/03 04:07:07;;;;;;;3.10;2.38;;;;;;;16.33;53.48;102435.00;4972835;28;20053;-61
2024/02/03 04:09:32;;;;;;;4.22;3.00;;;;;;;16.31;52.94;102429.69;4972891;28;20035;-61
2024/02/03 04:11:57;;;;;;;5.07;2.75;;;;;;;16.36;53.05;102440.16;4989113;28;20035;-61
2024/02/03 04:14:23;;;;;;;6.72;3.15;;;;;;;16.35;53.38;102439.28;4972631;28;20524;-61
2024/02/03 04:16:48;;;;;;;4.60;3.15;;;;;;;16.38;53.70;102436.34;4988987;28;20027;-61
2024/02/03 04:19:13;;;;;;;4.75;2.83;;;;;;;16.37;52.87;102441.84;4974040;28;20089;-61
2024/02/03 04:21:39;;;;;;;3.63;2.47;;;;;;;16.39;53.20;102448.84;4972633;28;20035;-61
2024/02/03 04:24:05;;;;;;;5.00;3.35;;;;;;;16.42;53.46;102448.59;4989499;28;20117;-61
2024/02/03 04:26:30;;;;;;;4.88;3.08;;;;;;;16.41;53.20;102446.91;4992727;28;20118;-61
2024/02/03 04:28:55;;;;;;;5.88;3.25;;;;;;;16.38;52.86;102436.34;4977735;28;20560;-61
2024/02/03 04:31:21;;;;;;;5.80;3.40;;;;;;;16.42;53.76;102437.78;4992915;28;20042;-61
2024/02/03 04:33:46;;;;;;;5.50;3.30;;;;;;;16.42;52.85;102435.06;4977631;28;20030;-61
2024/02/03 04:36:12;;;;;;;4.93;2.50;;;;;;;16.46;53.49;102441.97;4992475;28;20450;-61
2024/02/03 04:38:37;;;;;;;3.88;2.83;;;;;;;16.46;53.85;102436.56;4992439;28;20114;-61
2024/02/03 04:41:02;;;;;;;10.77;3.10;;;;;;;16.46;53.67;102444.66;4992649;28;20118;-61
2024/02/03 04:43:28;;;;;;;6.22;3.15;;;;;;;16.46;53.93;102436.56;4977645;28;20494;-61
2024/02/03 04:45:53;;;;;;;8.13;3.58;;;;;;;16.44;53.24;102432.25;4977382;28;20391;-61
2024/02/03 04:48:18;;;;;;;4.13;2.88;;;;;;;16.42;52.82;102434.22;4980168;28;20062;-61
2024/02/03 04:50:45;;;;;;;5.00;2.63;;;;;;;16.42;52.70;102439.63;4976078;28;20510;-61
2024/02/03 04:53:11;;;;;;;5.43;2.90;;;;;;;16.37;53.62;102431.91;4976141;28;20035;-61
2024/02/03 04:55:36;;;;;;;5.10;2.67;;;;;;;16.40;53.80;102431.66;4977267;28;20031;-61
2024/02/03 04:58:02;;;;;;;9.27;3.70;;;;;;;16.41;54.49;102427.97;4977255;28;20031;-61
2024/02/03 05:00:27;;;;;;;5.72;3.55;;;;;;;16.45;53.91;102432.13;4992289;28;20039;-61
2024/02/03 05:02:52;;;;;;;4.72;2.42;;;;;;;16.46;52.73;102425.72;4959757;28;20560;-61
2024/02/03 05:05:18;;;;;;;5.40;3.20;;;;;;;16.46;52.95;102414.91;4975650;28;20482;-61
2024/02/03 05:07:46;;;;;;;4.00;3.13;;;;;;;16.46;54.00;102404.09;4959946;28;20466;-61
2024/02/03 05:10:11;;;;;;;3.97;3.05;;;;;;;16.45;52.87;102407.78;4977332;28;20045;-61
2024/02/03 05:12:37;;;;;;;6.82;2.92;;;;;;;16.48;53.46;102407.50;4959788;28;20026;-61
2024/02/03 05:15:03;;;;;;;4.65;2.50;;;;;;;16.47;53.79;102403.09;4977655;28;20027;-61
2024/02/03 05:17:29;;;;;;;4.97;3.50;;;;;;;16.49;53.07;102398.44;4977539;28;20038;-61
2024/02/03 05:19:54;;;;;;;6.47;3.13;;;;;;;16.49;53.94;102395.72;4974683;28;20026;-61
2024/02/03 05:22:20;;;;;;;5.20;3.10;;;;;;;16.48;54.09;102396.69;4959601;28;20038;-61
2024/02/03 05:24:45;;;;;;;4.95;3.35;;;;;;;16.47;52.74;102400.38;4976797;28;20113;-61
2024/02/03 05:27:11;;;;;;;5.43;3.28;;;;;;;16.47;53.25;102400.38;4975462;28;20379;-61
2024/02/03 05:29:40;;;;;;;5.55;3.30;;;;;;;16.48;53.65;102385.88;4975534;28;20398;-61
2024/02/03 05:32:06;;;;;;;5.95;2.85;;;;;;;16.47;53.45;102389.56;4975798;28;20045;-61
2024/02/03 05:34:31;;;;;;;6.85;3.30;;;;;;;16.44;54.02;102388.97;4975220;28;20030;-61
2024/02/03 05:36:56;;;;;;;4.95;2.80;;;;;;;16.47;53.54;102396.84;4976483;28;20030;-61
2024/02/03 05:39:22;;;;;;;6.78;2.67;;;;;;;16.46;54.19;102390.56;4975166;28;20023;-62
2024/02/03 05:41:47;;;;;;;4.80;3.05;;;;;;;16.45;53.05;102396.94;4975346;28;20018;-61
2024/02/03 05:44:12;;;;;;;6.38;2.83;;;;;;;16.46;53.31;102393.28;4975353;28;20105;-61
2024/02/03 05:46:38;;;;;;;4.07;3.03;;;;;;;16.45;53.20;102396.94;4975193;28;20098;-61
2024/02/03 05:49:03;;;;;;;3.38;2.72;;;;;;;16.48;53.55;102403.94;4975183;28;20430;-62
2024/02/03 05:51:28;;;;;;;5.13;2.78;;;;;;;16.49;52.74;102403.84;4976215;28;20546;-61
2024/02/03 05:53:57;;;;;;;5.20;3.30;;;;;;;16.52;52.31;102392.75;4975057;28;20545;-61
2024/02/03 05:56:22;;;;;;;4.82;2.50;;;;;;;16.51;53.51;102401.84;4976498;28;20051;-61
2024/02/03 05:58:47;;;;;;;6.13;2.78;;;;;;;16.51;53.94;102404.56;4974983;28;20111;-61
2024/02/03 06:01:18;;;;;;;8.35;3.35;;;;;;;16.52;52.83;102406.28;4974912;28;20018;-61
2024/02/03 06:03:43;;;;;;;6.32;2.50;;;;;;;16.55;53.19;102405.19;4990757;28;20038;-61
2024/02/03 06:06:09;;;;;;;5.47;2.92;;;;;;;16.55;53.11;102403.34;4975988;28;20031;-61
2024/02/03 06:08:34;;;;;;;4.75;2.58;;;;;;;16.57;52.43;102395.97;4975890;28;20088;-62
2024/02/03 06:10:59;;;;;;;7.85;2.78;;;;;;;16.56;53.70;102396.94;4976127;28;20065;-61
2024/02/03 06:13:25;;;;;;;4.57;2.80;;;;;;;16.56;53.79;102393.38;4974525;28;20031;-61
2024/02/03 06:15:52;;;;;;;6.53;2.85;;;;;;;16.57;53.62;102395.97;4975885;28;20030;-61
2024/02/03 06:18:18;;;;;;;7.50;2.45;;;;;;;16.60;53.72;102398.41;4974575;28;20081;-61
2024/02/03 06:20:43;;;;;;;4.55;2.58;;;;;;;16.60;53.67;102387.59;4974758;28;20543;-62
2024/02/03 06:23:09;;;;;;;3.20;2.55;;;;;;;16.60;53.29;102395.72;4974527;28;20034;-61
2024/02/03 06:25:34;;;;;;;10.13;2.92;;;;;;;16.59;52.72;102391.28;4975825;28;20054;-62
2024/02/03 06:27:59;;;;;;;7.75;3.33;;;;;;;16.60;53.79;102389.44;4974408;28;20035;-61
2024/02/03 06:30:27;;;;;;;5.82;3.25;;;;;;;16.60;53.61;102384.03;4974355;28;20038;-61
2024/02/03 06:32:52;;;;;;;5.20;2.78;;;;;;;16.60;54.36;102390.28;4974339;28;20030;-61
2024/02/03 06:35:17;;;;;;;3.20;2.70;;;;;;;16.63;53.58;102397.28;4974370;28;20050;-61
2024/02/03 06:37:43;;;;;;;8.07;3.67;;;;;;;16.65;53.96;102385.34;4974197;28;20029;-61
2024/02/03 06:40:09;;;;;;;3.70;2.88;;;;;;;16.67;53.75;102379.78;4975491;28;20031;-61
2024/02/03 06:42:34;;;;;;;6.28;3.28;;;;;;;16.67;53.34;102383.34;4974352;28;20482;-62
2024/02/03 06:45:00;;;;;;;7.28;3.22;;;;;;;16.68;53.06;102395.91;4990281;28;20031;-61
2024/02/03 06:47:25;;;;;;;4.55;2.72;;;;;;;16.70;53.73;102391.22;4989394;28;20027;-61
2024/02/03 06:49:50;;;;;;;7.45;3.38;;;;;;;16.72;53.81;102389.22;4975480;28;20035;-61
2024/02/03 06:52:16;;;;;;;4.53;2.78;;;;;;;16.75;53.56;102388.13;4974067;28;20031;-61
2024/02/03 06:54:41;;;;;;;7.90;3.38;;;;;;;16.71;53.28;102379.41;4974009;28;20351;-61
2024/02/03 06:57:06;;;;;;;4.50;3.03;;;;;;;16.70;53.63;102383.09;4974919;28;20368;-61
2024/02/03 06:59:32;;;;;;;3.72;2.50;;;;;;;16.71;53.12;102387.53;4951893;28;20481;-62
2024/02/03 07:01:57;;;;;;;5.95;2.95;;;;;;;16.72;53.11;102383.00;4985632;28;20027;-61
2024/02/03 07:04:23;;;;;;;5.13;2.95;;;;;;;16.69;53.40;102381.41;4973898;28;20043;-61
2024/02/03 07:06:49;;;;;;;9.75;3.00;;;;;;;16.68;52.86;102382.38;4974874;28;20027;-61
2024/02/03 07:09:15;;;;;;;4.68;2.47;;;;;;;16.65;53.29;102381.78;4957681;28;20034;-61
2024/02/03 07:11:40;;;;;;;5.82;3.00;;;;;;;16.66;53.39;102395.19;4973720;28;20120;-61
2024/02/03 07:14:05;;;;;;;7.45;2.72;;;;;;;16.67;53.14;102386.06;4973872;28;20041;-61
2024/02/03 07:16:31;;;;;;;5.97;2.75;;;;;;;16.69;53.81;102389.53;4975244;28;20049;-62
2024/02/03 07:18:57;;;;;;;3.47;2.63;;;;;;;16.71;53.01;102387.53;4973645;28;20402;-61
2024/02/03 07:21:22;;;;;;;4.55;2.47;;;;;;;16.74;53.19;102397.22;4974069;28;20039;-62
2024/02/03 07:23:49;;;;;;;5.07;2.45;;;;;;;16.75;52.96;102388.13;4973737;28;20565;-62
2024/02/03 07:26:14;;;;;;;6.18;3.15;;;;;;;16.75;52.88;102388.97;4973642;28;20035;-61
2024/02/03 07:28:40;;;;;;;3.70;2.40;;;;;;;16.77;53.65;102392.44;4973638;28;20053;-61
2024/02/03 07:31:05;;;;;;;5.18;2.78;;;;;;;16.76;53.08;102389.84;4973407;28;20031;-61
2024/02/03 07:33:31;;;;;;;17.15;4.43;;;;;;;16.76;53.37;102385.28;4989440;28;20117;-61
2024/02/03 07:35:56;;;;;;;7.20;3.00;;;;;;;16.76;53.66;102384.41;4957189;28;20057;-61
2024/02/03 07:38:21;;;;;;;5.68;2.80;;;;;;;16.77;53.80;102389.72;4974354;28;20031;-61
2024/02/03 07:40:47;;;;;;;4.63;2.97;;;;;;;16.76;53.05;102390.69;4973190;28;20050;-61
2024/02/03 07:43:12;;;;;;;6.32;3.45;;;;;;;16.77;53.21;102394.28;4973206;28;20065;-62
2024/02/03 07:45:38;;;;;;;10.68;3.20;;;;;;;16.79;53.87;102400.41;4956787;28;20112;-61
2024/02/03 07:48:04;;;;;;;3.97;2.78;;;;;;;16.79;53.92;102409.38;4973038;28;20034;-62
2024/02/03 07:50:29;;;;;;;9.13;2.75;;;;;;;16.81;53.37;102404.69;4974406;28;20031;-61
2024/02/03 07:52:55;;;;;;;4.97;2.85;;;;;;;16.81;54.41;102404.69;4973397;28;20109;-61
2024/02/03 07:55:21;;;;;;;4.75;2.58;;;;;;;16.81;53.39;102404.69;4975104;28;20411;-61
2024/02/03 07:57:46;;;;;;;3.33;2.40;;;;;;;16.78;54.05;102399.53;4957139;28;20038;-61
2024/02/03 08:00:12;;;;;;;4.90;2.85;;;;;;;16.81;53.21;102404.69;4971043;28;20117;-61
2024/02/03 08:02:37;;;;;;;6.68;3.17;;;;;;;16.84;53.02;102409.84;4973305;28;20034;-61
2024/02/03 08:05:03;;;;;;;4.63;2.67;;;;;;;16.84;54.20;102398.16;4972547;28;20194;-61
2024/02/03 08:07:28;;;;;;;7.75;2.72;;;;;;;16.86;53.31;102410.56;4973762;28;20062;-61
2024/02/03 08:09:54;;;;;;;8.35;2.53;;;;;;;16.88;53.74;102407.75;4974229;28;20042;-61
2024/02/03 08:12:20;;;;;;;3.45;2.75;;;;;;;16.88;53.31;102411.31;4972011;28;20039;-61
2024/02/03 08:14:46;;;;;;;4.00;2.38;;;;;;;16.86;54.38;102407.84;4972795;28;20027;-62
2024/02/03 08:17:11;;;;;;;6.07;2.88;;;;;;;16.84;53.77;102409.84;4988281;28;20046;-62
2024/02/03 08:19:39;;;;;;;7.60;3.03;;;;;;;16.84;53.64;102409.84;4973878;28;20042;-61
2024/02/03 08:22:05;;;;;;;7.68;2.92;;;;;;;16.83;52.98;102397.28;4972933;28;20435;-61
2024/02/03 08:24:30;;;;;;;5.38;3.45;;;;;;;16.87;53.79;102404.16;4972612;28;20026;-62
2024/02/03 08:26:55;;;;;;;6.25;2.78;;;;;;;16.91;52.77;102406.63;4972594;28;20034;-62
2024/02/03 08:29:21;;;;;;;4.30;2.78;;;;;;;16.91;53.66;102406.63;4972678;28;20038;-61
2024/02/03 08:31:46;;;;;;;6.55;2.50;;;;;;;16.92;53.45;102416.47;4973974;28;20034;-62
2024/02/03 08:34:12;;;;;;;5.00;2.47;;;;;;;16.92;53.89;102420.00;4973972;28;20114;-62
2024/02/03 08:36:37;;;;;;;10.05;2.28;;;;;;;16.96;53.21;102417.91;4974485;28;20035;-61
2024/02/03 08:39:03;;;;;;;8.98;2.92;;;;;;;16.98;53.62;102422.19;4973974;28;20113;-61
2024/02/03 08:41:29;;;;;;;5.15;2.88;;;;;;;17.00;53.52;102424.78;4972644;28;20134;-61
2024/02/03 08:43:54;;;;;;;6.07;2.67;;;;;;;17.01;53.10;102421.06;4972739;28;20521;-61
2024/02/03 08:46:20;;;;;;;6.32;3.22;;;;;;;16.99;53.17;102425.75;4972290;28;20043;-62
2024/02/03 08:48:45;;;;;;;4.70;2.80;;;;;;;17.00;53.23;102422.09;4972198;28;20081;-61
2024/02/03 08:51:10;;;;;;;6.82;3.25;;;;;;;17.05;53.65;102427.94;4972561;28;20606;-61
2024/02/03 08:53:36;;;;;;;6.05;3.40;;;;;;;17.07;53.10;102437.66;4972427;28;20514;-62
2024/02/03 08:56:06;;;;;;;8.73;2.95;;;;;;;17.10;53.57;102436.53;4972270;28;20031;-62
2024/02/03 08:58:31;;;;;;;5.70;3.15;;;;;;;17.10;53.00;102439.25;4974766;28;20038;-61
2024/02/03 09:00:57;;;;;;;4.97;3.22;;;;;;;17.13;53.38;102441.69;4986552;28;20030;-62
2024/02/03 09:03:22;;;;;;;5.60;2.92;;;;;;;17.12;53.08;102437.25;4975533;28;20042;-62
2024/02/03 09:05:47;;;;;;;6.57;2.88;;;;;;;17.14;53.37;102438.84;4973340;28;20513;-62
2024/02/03 09:08:13;;;;;;;4.35;2.67;;;;;;;17.13;52.99;102436.28;4969778;28;20038;-62
2024/02/03 09:10:38;;;;;;;6.35;3.08;;;;;;;17.15;53.00;102445.97;4974763;28;20042;-62
2024/02/03 09:13:03;;;;;;;6.70;2.78;;;;;;;17.16;53.42;102442.28;5004337;28;20084;-62
2024/02/03 09:15:29;;;;;;;9.52;3.58;;;;;;;17.17;53.10;102440.44;4989125;28;20058;-63
2024/02/03 09:17:54;;;;;;;4.35;2.70;;;;;;;17.17;53.44;102443.16;4990064;28;20057;-63
2024/02/03 09:20:20;;;;;;;4.82;2.80;;;;;;;17.21;52.78;102447.28;4988555;28;20035;-63
2024/02/03 09:22:45;;;;;;;6.13;2.63;;;;;;;17.21;53.03;102433.75;4976090;28;20035;-63
2024/02/03 09:25:11;;;;;;;7.88;3.22;;;;;;;17.25;52.71;102436.06;4992145;28;20039;-63
2024/02/03 09:27:36;;;;;;;6.15;2.90;;;;;;;17.27;53.08;102439.50;4977100;28;20035;-63
2024/02/03 09:30:06;;;;;;;5.78;3.13;;;;;;;17.30;53.20;102446.50;4992012;28;20062;-63
2024/02/03 09:32:31;;;;;;;9.57;3.65;;;;;;;17.32;53.06;102448.09;4976843;28;20558;-63
2024/02/03 09:34:57;;;;;;;5.75;3.47;;;;;;;17.35;53.08;102452.38;4991806;28;20069;-63
2024/02/03 09:37:22;;;;;;;4.93;2.20;;;;;;;17.40;53.29;102458.25;4991773;28;20040;-63
2024/02/03 09:39:48;;;;;;;9.73;3.47;;;;;;;17.41;52.96;102459.97;4976836;28;20046;-63
2024/02/03 09:42:14;;;;;;;5.13;2.72;;;;;;;17.38;53.38;102466.53;4976709;28;20454;-63
2024/02/03 09:44:39;;;;;;;5.03;3.03;;;;;;;17.41;53.45;102463.56;4976788;28;20129;-63
2024/02/03 09:47:05;;;;;;;11.23;2.67;;;;;;;17.43;53.02;102468.81;4976558;28;20541;-63
2024/02/03 09:49:30;;;;;;;5.10;2.97;;;;;;;17.42;53.55;102467.09;4976386;28;20118;-63
2024/02/03 09:51:56;;;;;;;7.85;3.10;;;;;;;17.42;53.97;102476.09;4975289;28;20134;-63
2024/02/03 09:54:23;;;;;;;6.57;2.83;;;;;;;17.41;53.57;102468.09;4975248;28;20125;-63
2024/02/03 09:56:48;;;;;;;7.05;2.90;;;;;;;17.41;53.30;102473.53;4991174;28;20039;-63
2024/02/03 09:59:14;;;;;;;7.93;2.95;;;;;;;17.37;53.31;102472.06;4975260;28;20042;-63
2024/02/03 10:01:45;;;;;;;6.20;2.92;;;;;;;17.39;53.88;102467.38;4991514;28;20103;-63
2024/02/03 10:04:10;;;;;;;5.05;2.80;;;;;;;17.41;53.75;102476.22;4976514;28;20054;-63
2024/02/03 10:06:36;;;;;;;3.55;2.80;;;;;;;17.41;53.73;102468.09;4993261;28;20397;-63
2024/02/03 10:09:01;;;;;;;6.07;3.13;;;;;;;17.46;54.15;102479.41;4989928;28;20050;-63
2024/02/03 10:11:37;;;;;;;7.78;3.45;;;;;;;17.46;54.04;102482.09;4992796;28;20097;-62
2024/02/03 10:14:02;;;;;;;7.90;3.58;;;;;;;17.44;53.84;102478.69;4991694;28;20034;-62
2024/02/03 10:16:27;;;;;;;5.97;2.85;;;;;;;17.44;53.31;102484.09;4957998;28;20038;-62
2024/02/03 10:18:54;;;;;;;6.97;3.10;;;;;;;17.45;53.89;102488.50;4975028;28;20114;-63
2024/02/03 10:21:19;;;;;;;8.65;3.30;;;;;;;17.44;53.71;102478.69;4980701;28;20038;-62
2024/02/03 10:23:51;;;;;;;4.70;2.75;;;;;;;17.54;53.63;102482.31;4994550;28;20037;-62
2024/02/03 10:26:16;;;;;;;4.55;3.10;;;;;;;17.57;53.73;102479.34;4990287;28;20046;-63
2024/02/03 10:28:45;;;;;;;4.05;2.75;;;;;;;17.62;53.56;102478.94;4975116;28;20031;-62
2024/02/03 10:31:11;;;;;;;7.78;2.80;;;;;;;17.63;53.13;102467.13;4974979;28;20537;-62
2024/02/03 10:33:37;;;;;;;6.43;2.75;;;;;;;17.65;53.76;102482.25;4975185;28;20055;-62
2024/02/03 10:36:03;;;;;;;7.07;2.72;;;;;;;17.63;53.35;102473.41;4982936;28;20113;-62
2024/02/03 10:38:29;;;;;;;7.88;2.97;;;;;;;17.66;53.72;102475.84;4995460;28;20089;-62
2024/02/03 10:40:55;;;;;;;4.78;2.90;;;;;;;17.64;54.03;102485.97;4977531;28;20030;-62
2024/02/03 10:43:22;;;;;;;6.35;2.78;;;;;;;17.61;53.87;102480.81;4993651;28;20061;-63
2024/02/03 10:45:52;;;;;;;6.07;3.05;;;;;;;17.61;53.68;102480.81;4993891;28;20030;-63
2024/02/03 10:48:20;;;;;;;5.07;2.97;;;;;;;17.61;54.42;102474.53;5001265;28;20030;-62
2024/02/03 10:50:52;;;;;;;9.18;3.10;;;;;;;17.56;54.16;102465.94;4993840;28;20039;-62
2024/02/03 10:53:33;;;;;;;4.35;2.78;;;;;;;17.58;54.43;102470.25;4988195;28;20038;-62
2024/02/03 10:56:01;;;;;;;5.53;2.53;;;;;;;17.60;54.52;102473.66;4993503;28;20070;-63
2024/02/03 10:58:27;;;;;;;6.55;3.58;;;;;;;17.61;54.03;102480.81;4993799;28;20018;-62
2024/02/03 11:00:53;;;;;;;7.15;3.42;;;;;;;17.62;54.15;102477.09;4994577;28;20026;-62
2024/02/03 11:03:23;;;;;;;8.98;3.08;;;;;;;17.64;53.79;102468.84;4993607;28;20049;-62
2024/02/03 11:05:54;;;;;;;5.05;3.40;;;;;;;17.62;54.34;102462.69;4993622;28;20064;-62
2024/02/03 11:08:22;;;;;;;4.50;3.00;;;;;;;17.63;53.58;102467.97;4992327;28;20482;-62
2024/02/03 11:10:50;;;;;;;17.92;3.08;;;;;;;17.61;53.84;102461.84;4986136;28;20031;-62
2024/02/03 11:13:22;;;;;;;8.65;3.67;;;;;;;17.59;54.48;102452.97;4989788;28;20475;-62
2024/02/03 11:15:48;;;;;;;5.78;3.13;;;;;;;17.60;53.92;102448.41;4988986;28;20033;-63
2024/02/03 11:18:14;;;;;;;6.43;4.10;;;;;;;17.66;53.66;102446.03;4990053;28;20035;-62